createdAt,value
2022-10-06T00:01:19.203Z,100877.66
2022-10-06T00:03:48.740Z,100870.73
2022-10-06T00:06:18.236Z,100869.87
2022-10-06T00:08:47.679Z,100868.17
2022-10-06T00:11:16.725Z,100865.59
2022-10-06T00:13:50.472Z,100866.45
2022-10-06T00:16:21.872Z,100863.89
2022-10-06T00:18:50.675Z,100860.44
2022-10-06T00:21:19.129Z,100866.52
2022-10-06T00:23:47.647Z,100866.54
2022-10-06T00:26:16.913Z,100860.44
2022-10-06T00:28:50.554Z,100859.58
2022-10-06T00:31:20.952Z,100859.58
2022-10-06T00:33:51.874Z,100860.45
2022-10-06T00:36:20.613Z,100863.05
2022-10-06T00:38:49.079Z,100858.69
2022-10-06T00:41:18.754Z,100856.97
2022-10-06T00:43:50.317Z,100860.41
2022-10-06T00:46:28.464Z,100856.91
2022-10-06T00:49:04.206Z,100862.98
2022-10-06T00:51:42.140Z,100862.93
2022-10-06T00:54:11.048Z,100860.30
2022-10-06T00:56:40.466Z,100856.77
2022-10-06T00:59:12.197Z,100856.75
2022-10-06T01:01:44.214Z,100853.25
2022-10-06T01:04:17.553Z,100851.48
2022-10-06T01:06:49.564Z,100852.30
2022-10-06T01:09:22.209Z,100853.99
2022-10-06T01:11:53.304Z,100850.47
2022-10-06T01:14:24.070Z,100845.22
2022-10-06T01:17:00.526Z,100848.70
2022-10-06T01:19:46.753Z,100849.53
2022-10-06T01:22:17.757Z,100845.16
2022-10-06T01:24:52.310Z,100844.28
2022-10-06T01:27:21.996Z,100843.38
2022-10-06T01:29:56.108Z,100841.63
2022-10-06T01:32:24.898Z,100839.89
2022-10-06T01:34:54.698Z,100838.13
2022-10-06T01:37:23.922Z,100839.02
2022-10-06T01:39:55.118Z,100830.30
2022-10-06T01:42:25.356Z,100833.79
2022-10-06T01:44:53.996Z,100835.52
2022-10-06T01:47:22.819Z,100832.05
2022-10-06T01:49:51.229Z,100836.39
2022-10-06T01:52:20.124Z,100830.34
2022-10-06T01:54:49.045Z,100829.46
2022-10-06T01:57:17.546Z,100824.27
2022-10-06T01:59:46.040Z,100831.22
2022-10-06T02:02:14.666Z,100832.09
2022-10-06T02:04:43.104Z,100834.73
2022-10-06T02:07:12.063Z,100826.89
2022-10-06T02:09:46.384Z,100834.76
2022-10-06T02:12:17.016Z,100830.38
2022-10-06T02:14:48.277Z,100838.22
2022-10-06T02:17:17.162Z,100834.76
2022-10-06T02:19:47.788Z,100830.38
2022-10-06T02:22:16.876Z,100833.86
2022-10-06T02:24:45.358Z,100840.84
2022-10-06T02:27:14.000Z,100833.00
2022-10-06T02:29:42.477Z,100842.55
2022-10-06T02:32:11.053Z,100842.55
2022-10-06T02:34:39.547Z,100838.20
2022-10-06T02:37:08.278Z,100845.16
2022-10-06T02:39:37.186Z,100839.05
2022-10-06T02:42:14.461Z,100844.30
2022-10-06T02:44:46.028Z,100844.30
2022-10-06T02:47:15.984Z,100849.53
2022-10-06T02:49:45.370Z,100843.45
2022-10-06T02:52:14.896Z,100846.06
2022-10-06T02:54:43.342Z,100838.22
2022-10-06T02:57:13.703Z,100846.06
2022-10-06T02:59:42.841Z,100846.08
2022-10-06T03:02:11.353Z,100852.16
2022-10-06T03:04:39.960Z,100857.41
2022-10-06T03:07:08.665Z,100858.26
2022-10-06T03:09:39.331Z,100847.84
2022-10-06T03:12:10.236Z,100860.92
2022-10-06T03:14:41.010Z,100858.30
2022-10-06T03:17:09.876Z,100855.71
2022-10-06T03:19:40.960Z,100849.61
2022-10-06T03:22:10.476Z,100860.91
2022-10-06T03:24:44.054Z,100856.57
2022-10-06T03:27:12.733Z,100852.20
2022-10-06T03:29:41.429Z,100864.41
2022-10-06T03:32:10.214Z,100855.70
2022-10-06T03:34:38.912Z,100864.38
2022-10-06T03:37:09.427Z,100865.27
2022-10-06T03:39:37.951Z,100873.94
2022-10-06T03:42:07.458Z,100873.06
2022-10-06T03:44:36.436Z,100866.08
2022-10-06T03:47:10.323Z,100874.79
2022-10-06T03:49:42.633Z,100876.55
2022-10-06T03:52:11.380Z,100875.67
2022-10-06T03:54:40.265Z,100880.89
2022-10-06T03:57:09.162Z,100880.04
2022-10-06T03:59:38.464Z,100884.38
2022-10-06T04:02:11.642Z,100880.94
2022-10-06T04:04:40.858Z,100887.89
2022-10-06T04:07:12.031Z,100884.41
2022-10-06T04:09:41.740Z,100883.55
2022-10-06T04:12:12.803Z,100884.43
2022-10-06T04:14:50.147Z,100883.55
2022-10-06T04:17:18.792Z,100883.56
2022-10-06T04:19:47.825Z,100894.87
2022-10-06T04:22:16.552Z,100894.87
2022-10-06T04:24:46.155Z,100893.12
2022-10-06T04:27:27.560Z,100897.48
2022-10-06T04:30:11.642Z,100902.73
2022-10-06T04:32:41.307Z,100904.45
2022-10-06T04:35:10.381Z,100896.62
2022-10-06T04:37:40.779Z,100902.70
2022-10-06T04:40:11.349Z,100895.75
2022-10-06T04:42:42.147Z,100903.59
2022-10-06T04:45:15.698Z,100904.44
2022-10-06T04:47:45.054Z,100913.16
2022-10-06T04:50:14.099Z,100915.77
2022-10-06T04:53:02.191Z,100920.11
2022-10-06T04:55:31.521Z,100925.34
2022-10-06T04:58:00.424Z,100928.81
2022-10-06T05:00:30.098Z,100927.06
2022-10-06T05:03:03.418Z,100928.80
2022-10-06T05:05:33.343Z,100933.98
2022-10-06T05:08:06.908Z,100931.38
2022-10-06T05:10:36.476Z,100935.72
2022-10-06T05:13:05.823Z,100942.66
2022-10-06T05:15:34.732Z,100950.48
2022-10-06T05:18:05.936Z,100954.81
2022-10-06T05:20:35.258Z,100960.02
2022-10-06T05:23:07.632Z,100952.14
2022-10-06T05:25:36.198Z,100957.36
2022-10-06T05:28:06.069Z,100957.32
2022-10-06T05:30:34.925Z,100953.78
2022-10-06T05:33:04.506Z,100957.23
2022-10-06T05:35:33.610Z,100959.81
2022-10-06T05:38:02.134Z,100964.14
2022-10-06T05:40:30.878Z,100965.83
2022-10-06T05:43:00.109Z,100962.30
2022-10-06T05:45:29.191Z,100974.45
2022-10-06T05:47:58.072Z,100982.25
2022-10-06T05:50:26.835Z,100976.07
2022-10-06T05:52:56.334Z,100977.76
2022-10-06T05:55:26.094Z,100994.27
2022-10-06T05:57:55.779Z,100995.08
2022-10-06T06:00:27.386Z,100992.41
2022-10-06T06:02:56.164Z,101001.92
2022-10-06T06:05:25.033Z,100999.22
2022-10-06T06:07:53.633Z,101015.73
2022-10-06T06:10:22.389Z,101016.50
2022-10-06T06:12:51.182Z,101019.04
2022-10-06T06:16:01.406Z,101016.27
2022-10-06T06:18:30.199Z,101014.42
2022-10-06T06:21:02.473Z,101022.16
2022-10-06T06:23:36.817Z,101031.66
2022-10-06T06:26:10.568Z,101038.50
2022-10-06T06:28:45.711Z,101044.46
2022-10-06T06:31:20.309Z,101055.66
2022-10-06T06:33:53.372Z,101049.33
2022-10-06T06:36:24.914Z,101057.78
2022-10-06T06:38:54.889Z,101061.98
2022-10-06T06:41:26.321Z,101061.91
2022-10-06T06:43:59.916Z,101066.19
2022-10-06T06:46:38.783Z,101067.88
2022-10-06T06:49:13.677Z,101071.32
2022-10-06T06:51:49.322Z,101076.48
2022-10-06T06:54:20.396Z,101081.66
2022-10-06T06:56:54.628Z,101077.21
2022-10-06T06:59:24.694Z,101088.48
2022-10-06T07:01:57.123Z,101090.20
2022-10-06T07:04:27.070Z,101092.75
2022-10-06T07:06:57.566Z,101097.96
2022-10-06T07:09:29.391Z,101104.02
2022-10-06T07:12:02.735Z,101096.06
2022-10-06T07:14:31.588Z,101101.30
2022-10-06T07:17:19.927Z,101107.31
2022-10-06T07:20:09.605Z,101108.13
2022-10-06T07:23:02.367Z,101109.86
2022-10-06T07:25:31.534Z,101110.70
2022-10-06T07:28:04.194Z,101114.17
2022-10-06T07:30:40.895Z,101120.23
2022-10-06T07:33:15.953Z,101127.17
2022-10-06T07:35:46.136Z,101122.73
2022-10-06T07:38:16.804Z,101123.53
2022-10-06T07:41:17.820Z,101123.53
2022-10-06T07:43:46.345Z,101131.45
2022-10-06T07:46:15.593Z,101126.20
2022-10-06T07:48:49.960Z,101127.94
2022-10-06T07:51:19.828Z,101128.78
2022-10-06T07:53:50.272Z,101139.28
2022-10-06T07:56:32.006Z,101131.41
2022-10-06T07:59:00.885Z,101131.41
2022-10-06T08:01:30.675Z,101124.28
2022-10-06T08:03:59.262Z,101125.89
2022-10-06T08:06:27.730Z,101120.52
2022-10-06T08:08:56.714Z,101133.38
2022-10-06T08:11:25.222Z,101147.92
2022-10-06T08:13:53.733Z,101154.50
2022-10-06T08:16:29.502Z,101156.67
2022-10-06T08:18:59.034Z,101151.81
2022-10-06T08:21:29.540Z,101160.13
2022-10-06T08:23:59.121Z,101157.74
2022-10-06T08:26:29.614Z,101166.00
2022-10-06T08:29:02.389Z,101153.22
2022-10-06T08:31:32.394Z,101154.48
2022-10-06T08:34:01.571Z,101160.59
2022-10-06T08:36:32.372Z,101152.50
2022-10-06T08:39:01.934Z,101158.33
2022-10-06T08:41:40.053Z,101152.61
2022-10-06T08:44:21.639Z,101153.38
2022-10-06T08:46:55.355Z,101162.03
2022-10-06T08:49:24.881Z,101167.52
2022-10-06T08:52:04.574Z,101150.81
2022-10-06T08:54:44.164Z,101156.16
2022-10-06T08:57:19.357Z,101156.48
2022-10-06T08:59:52.875Z,101173.16
2022-10-06T09:02:28.977Z,101164.83
2022-10-06T09:05:01.611Z,101175.10
2022-10-06T09:07:41.071Z,101184.89
2022-10-06T09:10:25.407Z,101189.77
2022-10-06T09:13:00.449Z,101194.02
2022-10-06T09:15:37.615Z,101198.48
2022-10-06T09:18:15.806Z,101206.16
2022-10-06T09:20:51.184Z,101209.15
2022-10-06T09:23:41.454Z,101207.83
2022-10-06T09:26:13.103Z,101211.70
2022-10-06T09:28:45.755Z,101215.45
2022-10-06T09:31:22.001Z,101213.59
2022-10-06T09:33:54.799Z,101210.88
2022-10-06T09:36:23.811Z,101210.40
2022-10-06T09:38:54.124Z,101220.95
2022-10-06T09:41:31.833Z,101215.20
2022-10-06T09:44:03.236Z,101217.11
2022-10-06T09:46:34.251Z,101220.59
2022-10-06T09:49:21.177Z,101214.17
2022-10-06T09:52:14.661Z,101217.43
2022-10-06T09:55:02.446Z,101238.02
2022-10-06T09:57:31.883Z,101237.58
2022-10-06T10:00:02.872Z,101239.31
2022-10-06T10:02:36.499Z,101248.28
2022-10-06T10:05:18.224Z,101246.45
2022-10-06T10:08:00.255Z,101249.45
2022-10-06T10:10:29.036Z,101262.37
2022-10-06T10:12:59.265Z,101258.80
2022-10-06T10:15:31.508Z,101258.19
2022-10-06T10:18:02.825Z,101262.17
2022-10-06T10:20:35.885Z,101258.20
2022-10-06T10:23:27.221Z,101260.23
2022-10-06T10:26:26.465Z,101257.48
2022-10-06T10:29:33.435Z,101261.47
2022-10-06T10:32:12.179Z,101273.45
2022-10-06T10:34:58.956Z,101262.62
2022-10-06T10:37:34.956Z,101267.56
2022-10-06T10:40:11.829Z,101271.98
2022-10-06T10:42:47.471Z,101266.74
2022-10-06T10:45:22.808Z,101269.45
2022-10-06T10:47:51.691Z,101279.11
2022-10-06T10:50:26.498Z,101282.27
2022-10-06T10:53:01.678Z,101270.66
2022-10-06T10:55:34.575Z,101287.82
2022-10-06T10:58:13.463Z,101283.73
2022-10-06T11:00:47.121Z,101289.41
2022-10-06T11:03:14.876Z,101286.98
2022-10-06T11:06:03.287Z,101295.88
2022-10-06T11:08:40.154Z,101297.72
2022-10-06T11:11:16.939Z,101285.65
2022-10-06T11:13:50.142Z,101285.65
2022-10-06T11:16:34.348Z,101291.50
2022-10-06T11:19:29.746Z,101288.78
2022-10-06T11:22:05.349Z,101298.52
2022-10-06T11:24:45.916Z,101289.84
2022-10-06T11:27:28.340Z,101290.95
2022-10-06T11:30:05.685Z,101293.70
2022-10-06T11:32:45.891Z,101293.66
2022-10-06T11:35:20.474Z,101310.33
2022-10-06T11:37:55.126Z,101311.14
2022-10-06T11:40:41.463Z,101324.83
2022-10-06T11:43:17.851Z,101317.16
2022-10-06T11:46:02.265Z,101314.25
2022-10-06T11:48:32.934Z,101318.63
2022-10-06T11:51:30.947Z,101325.95
2022-10-06T11:53:59.778Z,101332.42
2022-10-06T11:56:46.176Z,101331.50
2022-10-06T11:59:26.305Z,101328.96
2022-10-06T12:01:57.400Z,101325.50
2022-10-06T12:04:26.261Z,101326.83
2022-10-06T12:07:00.147Z,101319.80
2022-10-06T12:09:51.953Z,101323.27
2022-10-06T12:13:06.308Z,101324.22
2022-10-06T12:19:17.050Z,101314.30
2022-10-06T12:21:58.670Z,101326.59
2022-10-06T12:24:45.466Z,101333.15
2022-10-06T12:27:31.594Z,101340.79
2022-10-06T12:30:18.899Z,101348.42
2022-10-06T12:32:53.374Z,101349.86
2022-10-06T12:35:30.872Z,101351.17
2022-10-06T12:38:04.076Z,101343.41
2022-10-06T12:40:48.610Z,101347.36
2022-10-06T12:43:57.141Z,101357.34
2022-10-06T12:46:37.269Z,101362.21
2022-10-06T12:49:31.388Z,101356.47
2022-10-06T12:52:11.730Z,101364.89
2022-10-06T12:54:51.689Z,101369.80
2022-10-06T12:57:22.929Z,101373.47
2022-10-06T12:59:51.418Z,101374.70
2022-10-06T13:02:22.596Z,101374.20
2022-10-06T13:04:54.269Z,101383.27
2022-10-06T13:07:25.258Z,101381.67
2022-10-06T13:09:55.679Z,101385.23
2022-10-06T13:12:28.537Z,101391.34
2022-10-06T13:15:18.974Z,101390.13
2022-10-06T13:17:51.737Z,101391.34
2022-10-06T13:20:36.225Z,101400.77
2022-10-06T13:23:18.200Z,101391.70
2022-10-06T13:25:52.720Z,101393.29
2022-10-06T13:28:26.895Z,101393.99
2022-10-06T13:30:58.190Z,101399.93
2022-10-06T13:33:31.996Z,101403.36
2022-10-06T13:36:02.218Z,101407.00
2022-10-06T13:38:34.578Z,101403.67
2022-10-06T13:41:07.266Z,101401.12
2022-10-06T13:43:39.973Z,101412.83
2022-10-06T13:46:14.227Z,101413.81
2022-10-06T13:48:47.692Z,101418.23
2022-10-06T13:51:19.800Z,101419.05
2022-10-06T13:53:49.444Z,101424.45
2022-10-06T13:56:48.673Z,101432.56
2022-10-06T13:59:31.861Z,101432.02
2022-10-06T14:02:20.553Z,101433.41
2022-10-06T14:05:25.982Z,101445.51
2022-10-06T14:07:58.556Z,101452.00
2022-10-06T14:10:31.921Z,101454.02
2022-10-06T14:13:01.952Z,101447.31
2022-10-06T14:15:38.503Z,101451.94
2022-10-06T14:18:17.230Z,101463.59
2022-10-06T14:20:46.874Z,101463.80
2022-10-06T14:23:43.094Z,101463.13
2022-10-06T14:26:13.738Z,101468.69
2022-10-06T14:28:47.374Z,101467.16
2022-10-06T14:31:16.914Z,101480.61
2022-10-06T14:33:46.879Z,101472.06
2022-10-06T14:36:19.153Z,101473.22
2022-10-06T14:38:52.237Z,101489.41
2022-10-06T14:41:26.946Z,101484.48
2022-10-06T14:43:57.055Z,101485.72
2022-10-06T14:46:25.819Z,101490.38
2022-10-06T14:48:54.959Z,101498.56
2022-10-06T14:51:25.021Z,101493.45
2022-10-06T14:53:55.418Z,101501.58
2022-10-06T14:56:26.330Z,101500.03
2022-10-06T14:58:54.958Z,101497.57
2022-10-06T15:01:25.308Z,101504.84
2022-10-06T15:03:54.926Z,101513.00
2022-10-06T15:06:43.334Z,101514.98
2022-10-06T15:09:12.812Z,101517.80
2022-10-06T15:11:41.793Z,101511.84
2022-10-06T15:14:11.351Z,101519.08
2022-10-06T15:16:43.531Z,101521.89
2022-10-06T15:19:12.498Z,101518.55
2022-10-06T15:21:44.812Z,101530.17
2022-10-06T15:24:15.220Z,101528.58
2022-10-06T15:27:03.045Z,101526.99
2022-10-06T15:29:32.941Z,101536.86
2022-10-06T15:32:02.979Z,101535.27
2022-10-06T15:34:33.703Z,101536.36
2022-10-06T15:37:03.737Z,101543.56
2022-10-06T15:39:36.531Z,101546.34
2022-10-06T15:42:06.138Z,101553.53
2022-10-06T15:44:35.476Z,101559.83
2022-10-06T15:47:05.775Z,101562.64
2022-10-06T15:49:39.737Z,101565.44
2022-10-06T15:52:12.472Z,101576.14
2022-10-06T15:54:41.587Z,101586.80
2022-10-06T15:57:20.394Z,101590.48
2022-10-06T15:59:50.552Z,101592.41
2022-10-06T16:02:20.701Z,101596.04
2022-10-06T16:05:16.602Z,101597.95
2022-10-06T16:07:45.450Z,101603.36
2022-10-06T16:10:14.369Z,101616.64
2022-10-06T16:12:42.807Z,101614.98
2022-10-06T16:15:12.884Z,101616.89
2022-10-06T16:17:41.497Z,101624.86
2022-10-06T16:20:11.742Z,101624.98
2022-10-06T16:22:40.618Z,101632.12
2022-10-06T16:25:12.555Z,101641.78
2022-10-06T16:27:41.058Z,101644.54
2022-10-06T16:30:12.601Z,101649.00
2022-10-06T16:32:41.352Z,101658.77
2022-10-06T16:35:17.443Z,101657.98
2022-10-06T16:37:49.399Z,101666.83
2022-10-06T16:40:18.442Z,101669.51
2022-10-06T16:42:46.942Z,101663.45
2022-10-06T16:45:15.904Z,101673.97
2022-10-06T16:47:44.392Z,101674.95
2022-10-06T16:50:13.007Z,101690.73
2022-10-06T16:52:41.579Z,101685.56
2022-10-06T16:55:12.593Z,101687.34
2022-10-06T16:57:40.987Z,101686.47
2022-10-06T17:00:14.368Z,101695.28
2022-10-06T17:02:43.194Z,101697.05
2022-10-06T17:05:12.908Z,101698.84
2022-10-06T17:07:41.326Z,101708.48
2022-10-06T17:10:20.870Z,101714.61
2022-10-06T17:12:49.803Z,101712.03
2022-10-06T17:15:18.285Z,101712.03
2022-10-06T17:17:47.353Z,101714.67
2022-10-06T17:20:16.392Z,101719.04
2022-10-06T17:22:44.764Z,101725.13
2022-10-06T17:25:14.489Z,101724.25
2022-10-06T17:27:43.003Z,101725.10
2022-10-06T17:30:16.256Z,101723.32
2022-10-06T17:32:46.520Z,101729.41
2022-10-06T17:35:15.579Z,101732.86
2022-10-06T17:37:44.362Z,101738.93
2022-10-06T17:40:13.165Z,101738.03
2022-10-06T17:42:42.392Z,101737.99
2022-10-06T17:45:21.086Z,101746.67
2022-10-06T17:47:52.321Z,101739.63
2022-10-06T17:50:21.599Z,101752.67
2022-10-06T17:52:50.536Z,101748.31
2022-10-06T17:55:19.449Z,101748.29
2022-10-06T17:57:47.942Z,101751.74
2022-10-06T18:00:17.594Z,101756.11
2022-10-06T18:02:48.444Z,101756.91
2022-10-06T18:05:17.274Z,101752.50
2022-10-06T18:07:45.817Z,101758.52
2022-10-06T18:10:33.438Z,101761.97
2022-10-06T18:13:02.554Z,101764.52
2022-10-06T18:15:36.205Z,101765.34
2022-10-06T18:18:07.395Z,101770.55
2022-10-06T18:20:40.987Z,101773.99
2022-10-06T18:23:10.672Z,101775.67
2022-10-06T18:25:39.707Z,101779.92
2022-10-06T18:28:10.144Z,101772.87
2022-10-06T18:30:38.875Z,101782.33
2022-10-06T18:36:14.693Z,101784.80
2022-10-06T18:38:45.166Z,101796.94
2022-10-06T18:41:15.951Z,101796.91
2022-10-06T18:43:45.006Z,101796.90
2022-10-06T18:46:33.812Z,101793.39
2022-10-06T18:49:09.909Z,101797.66
2022-10-06T18:51:40.145Z,101808.05
2022-10-06T18:54:13.236Z,101805.38
2022-10-06T18:56:49.675Z,101806.19
2022-10-06T18:59:23.712Z,101807.02
2022-10-06T19:01:54.476Z,101814.80
2022-10-06T19:04:27.172Z,101823.42
2022-10-06T19:06:57.452Z,101821.66
2022-10-06T19:09:27.033Z,101824.20
2022-10-06T19:11:57.892Z,101826.76
2022-10-06T19:14:30.833Z,101826.70
2022-10-06T19:26:22.112Z,101843.80
2022-10-06T19:28:52.938Z,101851.55
2022-10-06T19:31:21.554Z,101846.16
2022-10-06T19:33:50.054Z,101859.08
2022-10-06T19:36:21.181Z,101853.77
2022-10-06T19:38:49.635Z,101859.75
2022-10-06T19:41:36.857Z,101859.68
2022-10-06T19:44:05.641Z,101858.80
2022-10-06T19:46:36.985Z,101864.80
2022-10-06T19:49:07.835Z,101877.74
2022-10-06T19:51:40.719Z,101877.67
2022-10-06T19:54:12.701Z,101876.81
2022-10-06T19:56:41.433Z,101879.34
2022-10-06T19:59:15.476Z,101878.37
2022-10-06T20:01:44.622Z,101882.65
2022-10-06T20:04:13.837Z,101877.37
2022-10-06T20:06:45.115Z,101884.26
2022-10-06T20:09:16.005Z,101887.57
2022-10-06T20:11:46.772Z,101890.04
2022-10-06T20:14:20.819Z,101888.20
2022-10-06T20:16:52.062Z,101880.28
2022-10-06T20:19:21.769Z,101886.24
2022-10-06T20:21:51.165Z,101887.86
2022-10-06T20:24:22.312Z,101891.29
2022-10-06T20:26:52.510Z,101894.73
2022-10-06T20:29:23.423Z,101897.24
2022-10-06T20:31:54.549Z,101898.06
2022-10-06T20:34:24.943Z,101892.80
2022-10-06T20:36:56.210Z,101893.56
2022-10-06T20:39:44.237Z,101891.77
2022-10-06T20:42:15.264Z,101898.59
2022-10-06T20:44:48.462Z,101896.72
2022-10-06T20:47:17.144Z,101896.70
2022-10-06T20:49:53.735Z,101898.41
2022-10-06T20:52:23.631Z,101899.22
2022-10-06T20:54:52.401Z,101897.39
2022-10-06T20:57:22.329Z,101905.09
2022-10-06T20:59:52.092Z,101898.01
2022-10-06T21:02:23.219Z,101901.34
2022-10-06T21:04:51.789Z,101906.52
2022-10-06T21:07:21.083Z,101912.55
2022-10-06T21:09:52.141Z,101914.26
2022-10-06T21:12:20.949Z,101911.64
2022-10-06T21:14:57.028Z,101908.95
2022-10-06T21:17:27.200Z,101907.20
2022-10-06T21:19:55.725Z,101914.97
2022-10-06T21:22:24.480Z,101914.91
2022-10-06T21:24:53.051Z,101916.62
2022-10-06T21:27:21.541Z,101916.52
2022-10-06T21:29:50.707Z,101910.34
2022-10-06T21:32:20.088Z,101919.84
2022-10-06T21:34:49.891Z,101916.33
2022-10-06T21:37:20.016Z,101915.38
2022-10-06T21:39:50.935Z,101922.28
2022-10-06T21:42:19.385Z,101929.15
2022-10-06T21:44:49.916Z,101939.52
2022-10-06T21:47:18.507Z,101934.30
2022-10-06T21:49:47.034Z,101931.63
2022-10-06T21:52:15.470Z,101937.66
2022-10-06T21:54:47.732Z,101944.56
2022-10-06T21:57:17.099Z,101945.30
2022-10-06T21:59:50.655Z,101938.25
2022-10-06T22:02:19.323Z,101940.77
2022-10-06T22:05:02.706Z,101945.03
2022-10-06T22:07:31.383Z,101943.24
2022-10-06T22:10:02.284Z,101939.66
2022-10-06T22:12:31.169Z,101949.06
2022-10-06T22:15:02.153Z,101946.44
2022-10-06T22:17:33.382Z,101945.52
2022-10-06T22:20:05.224Z,101941.94
2022-10-06T22:22:34.023Z,101947.88
2022-10-06T22:25:02.645Z,101951.30
2022-10-06T22:27:31.833Z,101935.70
2022-10-06T22:30:01.202Z,101945.90
2022-10-06T22:32:31.115Z,101951.03
2022-10-06T22:35:02.054Z,101940.59
2022-10-06T22:37:30.531Z,101945.75
2022-10-06T22:40:01.145Z,101939.66
2022-10-06T22:42:31.550Z,101942.23
2022-10-06T22:45:00.713Z,101948.95
2022-10-06T22:47:30.465Z,101942.84
2022-10-06T22:49:59.035Z,101941.05
2022-10-06T22:52:28.597Z,101954.02
2022-10-06T22:54:57.035Z,101947.97
2022-10-06T22:57:25.813Z,101945.31
2022-10-06T22:59:54.549Z,101946.20
2022-10-06T23:02:23.273Z,101949.57
2022-10-06T23:04:51.860Z,101953.00
2022-10-06T23:07:20.402Z,101953.00
2022-10-06T23:09:50.120Z,101958.13
2022-10-06T23:12:19.009Z,101957.20
2022-10-06T23:14:47.505Z,101959.69
2022-10-06T23:17:15.971Z,101963.95
2022-10-06T23:19:44.465Z,101958.70
2022-10-06T23:22:13.487Z,101957.77
2022-10-06T23:24:41.943Z,101962.05
2022-10-06T23:27:10.824Z,101965.45
2022-10-06T23:29:39.341Z,101967.94
2022-10-06T23:32:09.822Z,101963.62
2022-10-06T23:34:38.581Z,101960.97
2022-10-06T23:37:07.246Z,101969.58
2022-10-06T23:39:35.999Z,101959.03
2022-10-06T23:42:05.095Z,101963.19
2022-10-06T23:44:33.878Z,101967.44
2022-10-06T23:47:04.918Z,101958.77
2022-10-06T23:49:33.819Z,101960.39
2022-10-06T23:52:02.670Z,101963.78
2022-10-06T23:54:31.215Z,101967.10
2022-10-06T23:56:59.787Z,101969.59
2022-10-06T23:59:29.106Z,101973.02
